Time;durP1;ratioP1;P1;durP2;ratioP2;P2;SDS_P1;SDS_P2;PMS_P1;PMS_P2;Temp;Humidity;BMP_temperature;BMP_pressure;BME280_temperature;BME280_humidity;BME280_pressure;Samples;Min_cycle;Max_cycle;Signal;HPM_P1;HPM_P2
2021/12/17 00:00:46;;;;;;;;;;;9.00;99.90;;;;;;4970472;28;21104;-69
2021/12/17 00:03:20;;;;;;;;;;;9.00;99.90;;;;;;4970738;28;21196;-69
2021/12/17 00:06:06;;;;;;;;;;;9.00;99.90;;;;;;4970131;28;20209;-69
2021/12/17 00:08:34;;;;;;;;;;;9.00;99.90;;;;;;4968890;28;20186;-69
2021/12/17 00:11:02;;;;;;;;;;;9.00;99.90;;;;;;4969853;28;20154;-69
2021/12/17 00:13:30;;;;;;;;;;;9.00;99.90;;;;;;4969503;28;20069;-69
2021/12/17 00:15:57;;;;;;;;;;;9.00;99.90;;;;;;4969573;28;20059;-69
2021/12/17 00:18:29;;;;;;;;;;;9.00;99.90;;;;;;4968601;28;21165;-69
2021/12/17 00:48:45;;;;;;;;;;;8.90;99.90;;;;;;4967935;28;20054;-69
2021/12/17 00:53:59;;;;;;;;;;;8.90;99.90;;;;;;4969589;28;20052;-69
2021/12/17 00:56:28;;;;;;;;;;;8.90;99.90;;;;;;4968904;28;20287;-69
2021/12/17 00:58:56;;;;;;;;;;;8.90;99.90;;;;;;4967702;28;20091;-69
2021/12/17 01:01:24;;;;;;;;;;;8.90;99.90;;;;;;4968141;28;20109;-69
2021/12/17 01:03:52;;;;;;;;;;;8.90;99.90;;;;;;4967926;28;20203;-69
2021/12/17 01:06:19;;;;;;;;;;;8.90;99.90;;;;;;4968807;28;20068;-69
2021/12/17 01:08:47;;;;;;;;;;;8.90;99.90;;;;;;4968223;28;20052;-69
2021/12/17 01:11:17;;;;;;;;;;;8.90;99.90;;;;;;4968373;28;20051;-69
2021/12/17 01:14:11;;;;;;;;;;;8.80;99.90;;;;;;4968676;28;20187;-69
2021/12/17 01:16:57;;;;;;;;;;;8.80;99.90;;;;;;4988516;28;20141;-69
2021/12/17 01:22:53;;;;;;;;;;;8.80;99.90;;;;;;4942972;28;20040;-69
2021/12/17 01:25:38;;;;;;;;;;;8.80;99.90;;;;;;4950135;28;21084;-69
2021/12/17 01:43:15;;;;;;;;;;;8.80;99.90;;;;;;4949147;28;20049;-70
2021/12/17 01:45:42;;;;;;;;;;;8.70;99.90;;;;;;4947757;28;20101;-70
2021/12/17 01:48:16;;;;;;;;;;;8.70;99.90;;;;;;4947645;28;20287;-70
2021/12/17 01:56:29;;;;;;;;;;;8.70;99.90;;;;;;4948003;28;20055;-70
2021/12/17 02:01:41;;;;;;;;;;;8.80;99.90;;;;;;4957106;28;20078;-70
2021/12/17 02:04:10;;;;;;;;;;;8.80;99.90;;;;;;4956458;28;20065;-70
2021/12/17 02:06:37;;;;;;;;;;;8.80;99.90;;;;;;4960295;28;20066;-70
2021/12/17 02:09:12;;;;;;;;;;;8.80;99.90;;;;;;4966922;28;20057;-69
2021/12/17 02:12:16;;;;;;;;;;;8.80;99.90;;;;;;4967197;28;20280;-70
2021/12/17 02:20:41;;;;;;;;;;;8.80;99.90;;;;;;4967539;28;20048;-70
2021/12/17 02:28:47;;;;;;;;;;;8.80;99.90;;;;;;4966478;28;20289;-70
2021/12/17 02:31:26;;;;;;;;;;;8.80;99.90;;;;;;4967557;28;20051;-70
2021/12/17 02:33:55;;;;;;;;;;;8.80;99.90;;;;;;4966701;28;20082;-69
2021/12/17 02:36:27;;;;;;;;;;;8.70;99.90;;;;;;4967199;28;20060;-70
2021/12/17 02:39:00;;;;;;;;;;;8.80;99.90;;;;;;4967153;28;20297;-68
2021/12/17 02:47:17;;;;;;;;;;;8.80;99.90;;;;;;4966483;28;20039;-69
2021/12/17 02:49:47;;;;;;;;;;;8.80;99.90;;;;;;4966473;28;20158;-69
2021/12/17 02:52:17;;;;;;;;;;;8.80;99.90;;;;;;4967072;28;20066;-69
2021/12/17 02:54:44;;;;;;;;;;;8.80;99.90;;;;;;4966518;28;20086;-69
2021/12/17 02:57:12;;;;;;;;;;;8.80;99.90;;;;;;4966433;28;21169;-69
2021/12/17 02:59:40;;;;;;;;;;;8.80;99.90;;;;;;4966783;28;20058;-69
2021/12/17 03:02:08;;;;;;;;;;;8.80;99.90;;;;;;4967094;28;20067;-69
2021/12/17 03:04:36;;;;;;;;;;;8.80;99.90;;;;;;4967429;28;20198;-69
2021/12/17 03:07:04;;;;;;;;;;;8.80;99.90;;;;;;4957382;28;20076;-69
2021/12/17 03:09:47;;;;;;;;;;;8.80;99.90;;;;;;4960233;28;20154;-69
2021/12/17 03:12:23;;;;;;;;;;;8.80;99.90;;;;;;4966982;28;20060;-69
2021/12/17 03:14:56;;;;;;;;;;;8.80;99.90;;;;;;4966872;28;20060;-69
2021/12/17 03:17:43;;;;;;;;;;;8.80;99.90;;;;;;4966627;28;20154;-69
2021/12/17 03:25:41;;;;;;;;;;;8.70;99.90;;;;;;4966808;28;20074;-69
2021/12/17 03:28:11;;;;;;;;;;;8.70;99.90;;;;;;4965624;28;20060;-69
2021/12/17 03:30:38;;;;;;;;;;;8.70;99.90;;;;;;4966764;28;20060;-69
2021/12/17 03:33:05;;;;;;;;;;;8.70;99.90;;;;;;4966742;28;20052;-69
2021/12/17 03:35:33;;;;;;;;;;;8.70;99.90;;;;;;4966210;28;20238;-69
2021/12/17 03:38:00;;;;;;;;;;;8.70;99.90;;;;;;4965931;28;21135;-69
2021/12/17 03:40:31;;;;;;;;;;;8.70;99.90;;;;;;4966465;28;20069;-69
2021/12/17 03:43:10;;;;;;;;;;;8.70;99.90;;;;;;4966979;28;20088;-69
2021/12/17 03:45:38;;;;;;;;;;;8.70;99.90;;;;;;4966365;28;20184;-69
2021/12/17 03:48:11;;;;;;;;;;;8.70;99.90;;;;;;4965810;28;20051;-70
2021/12/17 03:50:38;;;;;;;;;;;8.70;99.90;;;;;;4966392;28;21251;-69
2021/12/17 03:53:06;;;;;;;;;;;8.70;99.90;;;;;;4965774;28;20061;-69
2021/12/17 03:55:36;;;;;;;;;;;8.70;99.90;;;;;;4965972;28;20121;-69
2021/12/17 03:58:07;;;;;;;;;;;8.70;99.90;;;;;;4968224;28;20250;-69
2021/12/17 04:00:39;;;;;;;;;;;8.70;99.90;;;;;;4970879;28;20233;-69
2021/12/17 04:03:06;;;;;;;;;;;8.70;99.90;;;;;;4970401;28;20105;-70
2021/12/17 04:05:46;;;;;;;;;;;8.70;99.90;;;;;;4970148;28;20142;-70
2021/12/17 04:08:42;;;;;;;;;;;8.70;99.90;;;;;;4988995;28;20067;-70
2021/12/17 04:11:46;;;;;;;;;;;8.60;99.90;;;;;;4961769;28;20282;-70
2021/12/17 04:14:33;;;;;;;;;;;8.60;99.90;;;;;;4970970;28;20086;-70
2021/12/17 04:17:04;;;;;;;;;;;8.60;99.90;;;;;;4969933;28;20065;-70
2021/12/17 04:19:32;;;;;;;;;;;8.60;99.90;;;;;;4969303;28;20195;-70
2021/12/17 04:21:59;;;;;;;;;;;8.60;99.90;;;;;;4969798;28;20174;-70
2021/12/17 04:24:26;;;;;;;;;;;8.60;99.90;;;;;;4970049;28;20077;-70
2021/12/17 04:26:54;;;;;;;;;;;8.60;99.90;;;;;;4969322;28;20189;-70
2021/12/17 04:29:25;;;;;;;;;;;8.60;99.90;;;;;;4969388;28;21050;-70
2021/12/17 04:31:55;;;;;;;;;;;8.60;99.90;;;;;;4969536;28;20058;-70
2021/12/17 04:34:24;;;;;;;;;;;8.60;99.90;;;;;;4970782;28;21205;-70
2021/12/17 04:36:53;;;;;;;;;;;8.60;99.90;;;;;;4968971;28;20051;-70
2021/12/17 04:39:28;;;;;;;;;;;8.60;99.90;;;;;;4970279;28;20060;-70
2021/12/17 04:41:59;;;;;;;;;;;8.60;99.90;;;;;;4969909;28;20314;-70
2021/12/17 04:44:31;;;;;;;;;;;8.60;99.90;;;;;;4970446;28;20158;-70
2021/12/17 04:57:13;;;;;;;;;;;8.60;99.90;;;;;;4969984;28;21105;-70
2021/12/17 04:58:11;;;;;;;;;;;8.50;99.90;;;;;;4968669;28;20121;-70
2021/12/17 05:00:40;;;;;;;;;;;8.60;99.90;;;;;;4969778;28;20280;-70
2021/12/17 05:03:16;;;;;;;;;;;8.60;99.90;;;;;;4969755;28;20078;-70
2021/12/17 05:05:46;;;;;;;;;;;8.60;99.90;;;;;;4968200;28;21179;-70
2021/12/17 05:08:25;;;;;;;;;;;8.50;99.90;;;;;;4967915;28;20066;-70
2021/12/17 05:11:17;;;;;;;;;;;8.50;99.90;;;;;;4969144;28;20083;-70
2021/12/17 05:19:27;;;;;;;;;;;8.50;99.90;;;;;;4968896;28;20162;-70
2021/12/17 05:21:56;;;;;;;;;;;8.50;99.90;;;;;;4969009;28;20076;-70
2021/12/17 05:24:23;;;;;;;;;;;8.50;99.90;;;;;;4969202;28;20202;-70
2021/12/17 05:26:51;;;;;;;;;;;8.50;99.90;;;;;;4968129;28;21231;-70
2021/12/17 05:29:19;;;;;;;;;;;8.40;99.90;;;;;;4968575;28;20091;-68
2021/12/17 05:31:48;;;;;;;;;;;8.40;99.90;;;;;;4969407;28;20182;-68
2021/12/17 05:34:15;;;;;;;;;;;8.40;99.90;;;;;;4968978;28;20088;-69
2021/12/17 05:36:51;;;;;;;;;;;8.40;99.90;;;;;;4968174;28;20060;-69
2021/12/17 05:39:23;;;;;;;;;;;8.40;99.90;;;;;;4967875;28;20051;-69
2021/12/17 05:41:50;;;;;;;;;;;8.40;99.90;;;;;;4968497;28;20075;-69
2021/12/17 05:44:35;;;;;;;;;;;8.40;99.90;;;;;;4968732;28;21191;-70
2021/12/17 05:47:05;;;;;;;;;;;8.40;99.90;;;;;;4967527;28;21152;-69
2021/12/17 05:49:33;;;;;;;;;;;8.40;99.90;;;;;;4950867;28;20070;-69
2021/12/17 05:52:02;;;;;;;;;;;8.40;99.90;;;;;;4961304;28;20052;-69
2021/12/17 05:54:31;;;;;;;;;;;8.40;99.90;;;;;;4949066;28;21153;-70
2021/12/17 05:56:59;;;;;;;;;;;8.40;99.90;;;;;;4948635;28;20053;-69
2021/12/17 05:59:34;;;;;;;;;;;8.40;99.90;;;;;;4948693;28;21159;-70
2021/12/17 06:02:04;;;;;;;;;;;8.40;99.90;;;;;;4944081;28;20076;-69
2021/12/17 06:04:34;;;;;;;;;;;8.40;99.90;;;;;;4957795;28;20076;-69
2021/12/17 06:07:04;;;;;;;;;;;8.40;99.90;;;;;;4965339;28;21042;-71
2021/12/17 06:09:33;;;;;;;;;;;8.40;99.90;;;;;;4967365;28;20185;-69
2021/12/17 06:12:04;;;;;;;;;;;8.40;99.90;;;;;;4954520;28;20208;-69
2021/12/17 06:14:31;;;;;;;;;;;8.40;99.90;;;;;;4948613;28;20070;-69
2021/12/17 06:16:58;;;;;;;;;;;8.40;99.90;;;;;;4947733;28;20069;-69
2021/12/17 06:19:38;;;;;;;;;;;8.40;99.90;;;;;;4952859;28;20307;-69
2021/12/17 06:22:05;;;;;;;;;;;8.40;99.90;;;;;;4968152;28;20077;-69
2021/12/17 06:24:32;;;;;;;;;;;8.40;99.90;;;;;;4968318;28;20075;-70
2021/12/17 06:27:01;;;;;;;;;;;8.40;99.90;;;;;;4967802;28;20192;-69
2021/12/17 06:29:28;;;;;;;;;;;8.40;99.90;;;;;;4967416;28;20082;-70
2021/12/17 06:32:04;;;;;;;;;;;8.40;99.90;;;;;;4968707;28;20052;-70
2021/12/17 06:34:32;;;;;;;;;;;8.40;99.90;;;;;;4968003;28;20211;-69
2021/12/17 06:37:01;;;;;;;;;;;8.40;99.90;;;;;;4959093;28;20711;-70
2021/12/17 06:39:29;;;;;;;;;;;8.40;99.90;;;;;;4947761;28;20067;-70
2021/12/17 06:41:57;;;;;;;;;;;8.40;99.90;;;;;;4948462;28;21157;-69
2021/12/17 06:44:26;;;;;;;;;;;8.40;99.90;;;;;;4949833;28;20060;-69
2021/12/17 06:46:59;;;;;;;;;;;8.40;99.90;;;;;;4948246;28;20061;-69
2021/12/17 06:49:41;;;;;;;;;;;8.40;99.90;;;;;;4948671;28;20067;-69
2021/12/17 06:56:13;;;;;;;;;;;8.40;99.90;;;;;;4948096;28;20068;-70
2021/12/17 06:59:06;;;;;;;;;;;8.40;99.90;;;;;;4965230;28;20109;-70
2021/12/17 07:09:00;;;;;;;;;;;8.40;99.90;;;;;;4967449;28;20072;-70
2021/12/17 07:11:18;;;;;;;;;;;8.40;99.90;;;;;;4946720;28;20075;-70
2021/12/17 07:22:06;;;;;;;;;;;8.30;99.90;;;;;;4940583;28;20061;-69
2021/12/17 07:33:08;;;;;;;;;;;8.30;99.90;;;;;;4971206;28;20055;-69
2021/12/17 07:35:52;;;;;;;;;;;8.30;99.90;;;;;;4951660;28;20122;-69
2021/12/17 07:38:40;;;;;;;;;;;8.30;99.90;;;;;;4951636;28;20180;-69
2021/12/17 07:41:28;;;;;;;;;;;8.30;99.90;;;;;;4971057;28;20288;-69
2021/12/17 07:44:02;;;;;;;;;;;8.30;99.90;;;;;;4951131;28;20202;-69
2021/12/17 07:46:33;;;;;;;;;;;8.30;99.90;;;;;;4951203;28;20109;-69
2021/12/17 07:49:00;;;;;;;;;;;8.30;99.90;;;;;;4950902;28;20223;-69
2021/12/17 07:51:27;;;;;;;;;;;8.30;99.90;;;;;;4950781;28;20412;-69
2021/12/17 07:53:58;;;;;;;;;;;8.30;99.90;;;;;;4960693;28;20159;-69
2021/12/17 07:56:30;;;;;;;;;;;8.20;99.90;;;;;;4950115;28;20155;-70
2021/12/17 07:59:03;;;;;;;;;;;8.30;99.90;;;;;;4963269;28;20060;-69
2021/12/17 08:01:32;;;;;;;;;;;8.20;99.90;;;;;;4971578;28;20067;-69
2021/12/17 08:03:59;;;;;;;;;;;8.20;99.90;;;;;;4949297;28;20293;-69
2021/12/17 08:06:58;;;;;;;;;;;8.30;99.90;;;;;;4937118;28;20077;-68
2021/12/17 08:09:29;;;;;;;;;;;8.30;99.90;;;;;;4995322;22;20068;-70
2021/12/17 08:11:59;;;;;;;;;;;8.30;99.90;;;;;;5007377;28;20068;-70
2021/12/17 08:14:32;;;;;;;;;;;8.30;99.90;;;;;;4987413;28;20089;-70
2021/12/17 08:17:13;;;;;;;;;;;8.30;99.90;;;;;;4986911;28;20059;-71
2021/12/17 08:25:15;;;;;;;;;;;8.30;99.90;;;;;;4967565;28;20258;-71
2021/12/17 08:28:02;;;;;;;;;;;8.30;99.90;;;;;;4961595;28;20116;-71
2021/12/17 08:30:38;;;;;;;;;;;8.30;99.90;;;;;;4978180;28;20182;-71
2021/12/17 08:33:10;;;;;;;;;;;8.30;99.90;;;;;;4971370;28;20122;-69
2021/12/17 08:35:38;;;;;;;;;;;8.30;99.90;;;;;;4969868;28;20068;-71
2021/12/17 08:38:12;;;;;;;;;;;8.30;99.90;;;;;;4969340;28;20067;-71
2021/12/17 08:40:39;;;;;;;;;;;8.30;99.90;;;;;;4969768;28;20158;-71
2021/12/17 08:43:09;;;;;;;;;;;8.30;99.90;;;;;;4968504;28;20498;-71
2021/12/17 08:45:43;;;;;;;;;;;8.30;99.90;;;;;;4972551;28;20262;-71
2021/12/17 08:48:29;;;;;;;;;;;8.30;99.90;;;;;;4996353;28;20168;-71
2021/12/17 08:51:15;;;;;;;;;;;8.40;99.90;;;;;;5003940;28;21108;-71
2021/12/17 08:53:43;;;;;;;;;;;8.40;99.90;;;;;;4966024;28;20202;-71
2021/12/17 08:56:13;;;;;;;;;;;8.40;99.90;;;;;;4971417;28;20075;-71
2021/12/17 08:58:42;;;;;;;;;;;8.40;99.90;;;;;;4979766;28;20086;-71
2021/12/17 09:01:10;;;;;;;;;;;8.40;99.90;;;;;;4982057;28;20060;-70
2021/12/17 09:03:38;;;;;;;;;;;8.40;99.90;;;;;;4990124;28;20059;-70
2021/12/17 09:06:28;;;;;;;;;;;8.40;99.90;;;;;;5008480;28;21221;-70
2021/12/17 09:08:59;;;;;;;;;;;8.40;99.90;;;;;;4987797;28;24696;-70
2021/12/17 09:11:29;;;;;;;;;;;8.40;99.90;;;;;;4990059;28;21123;-71
2021/12/17 09:14:05;;;;;;;;;;;8.40;99.90;;;;;;4990006;28;20060;-70
2021/12/17 09:16:49;;;;;;;;;;;8.40;99.90;;;;;;4989790;28;20075;-70
2021/12/17 09:19:17;;;;;;;;;;;8.40;99.90;;;;;;4989894;28;20535;-71
2021/12/17 09:21:51;;;;;;;;;;;8.40;99.90;;;;;;4990112;28;20097;-70
2021/12/17 09:24:23;;;;;;;;;;;8.40;99.90;;;;;;4989773;28;21117;-71
2021/12/17 09:27:09;;;;;;;;;;;8.40;99.90;;;;;;5006467;28;20231;-71
2021/12/17 09:29:58;;;;;;;;;;;8.40;99.90;;;;;;4988431;28;20059;-71
2021/12/17 09:32:25;;;;;;;;;;;8.30;99.90;;;;;;4970297;28;20069;-72
2021/12/17 09:34:52;;;;;;;;;;;8.30;99.90;;;;;;4969972;28;20108;-72
2021/12/17 09:37:19;;;;;;;;;;;8.30;99.90;;;;;;4969989;28;20109;-72
2021/12/17 09:39:46;;;;;;;;;;;8.30;99.90;;;;;;4968769;28;20074;-71
2021/12/17 09:42:14;;;;;;;;;;;8.30;99.90;;;;;;4970142;28;20075;-76
2021/12/17 09:44:41;;;;;;;;;;;8.30;99.90;;;;;;4977043;28;20150;-70
2021/12/17 09:47:10;;;;;;;;;;;8.30;99.90;;;;;;4971477;28;20086;-71
2021/12/17 09:49:38;;;;;;;;;;;8.30;99.90;;;;;;4965348;28;20179;-71
2021/12/17 09:52:06;;;;;;;;;;;8.30;99.90;;;;;;4974258;28;20095;-71
2021/12/17 09:54:33;;;;;;;;;;;8.30;99.90;;;;;;4976832;28;21147;-71
2021/12/17 09:57:00;;;;;;;;;;;8.30;99.90;;;;;;4965067;28;20069;-71
2021/12/17 09:59:27;;;;;;;;;;;8.30;99.90;;;;;;4962690;28;21077;-71
2021/12/17 10:01:54;;;;;;;;;;;8.30;99.90;;;;;;4967068;28;21102;-71
2021/12/17 10:04:27;;;;;;;;;;;8.30;99.90;;;;;;4966150;28;20307;-71
2021/12/17 10:07:14;;;;;;;;;;;8.40;99.90;;;;;;4967929;28;20077;-71
2021/12/17 10:09:46;;;;;;;;;;;8.40;99.90;;;;;;4965582;28;20069;-71
2021/12/17 10:12:13;;;;;;;;;;;8.40;99.90;;;;;;4967009;28;20097;-71
2021/12/17 10:14:41;;;;;;;;;;;8.40;99.90;;;;;;4967817;28;20086;-71
2021/12/17 10:17:09;;;;;;;;;;;8.40;99.90;;;;;;4967135;28;20076;-71
2021/12/17 10:19:48;;;;;;;;;;;8.40;99.90;;;;;;4966745;28;20085;-71
2021/12/17 10:22:16;;;;;;;;;;;8.40;99.90;;;;;;4967121;28;20158;-71
2021/12/17 10:24:44;;;;;;;;;;;8.40;99.90;;;;;;4967423;28;20085;-71
2021/12/17 10:27:19;;;;;;;;;;;8.40;99.90;;;;;;4967060;28;20096;-70
2021/12/17 10:29:47;;;;;;;;;;;8.40;99.90;;;;;;4967506;28;20094;-71
2021/12/17 10:32:17;;;;;;;;;;;8.30;99.90;;;;;;4967579;28;20078;-71
2021/12/17 10:34:59;;;;;;;;;;;8.30;99.90;;;;;;4966578;28;21089;-71
2021/12/17 10:37:33;;;;;;;;;;;8.30;99.90;;;;;;4968718;28;20097;-71
2021/12/17 10:40:01;;;;;;;;;;;8.30;99.90;;;;;;4970278;28;20334;-71
2021/12/17 10:42:36;;;;;;;;;;;8.30;99.90;;;;;;4971608;28;20068;-71
2021/12/17 10:45:11;;;;;;;;;;;8.30;99.90;;;;;;4973105;28;20068;-71
2021/12/17 10:47:45;;;;;;;;;;;8.30;99.90;;;;;;4967596;28;21159;-70
2021/12/17 10:50:13;;;;;;;;;;;8.30;99.90;;;;;;4973025;28;20092;-71
2021/12/17 10:52:54;;;;;;;;;;;8.30;99.90;;;;;;4971940;28;20163;-71
2021/12/17 10:55:23;;;;;;;;;;;8.40;99.90;;;;;;4983538;28;20099;-71
2021/12/17 10:57:51;;;;;;;;;;;8.40;99.90;;;;;;4972351;28;20161;-71
2021/12/17 11:00:20;;;;;;;;;;;8.40;99.90;;;;;;4974594;28;20117;-71
2021/12/17 11:02:50;;;;;;;;;;;8.40;99.90;;;;;;4971517;28;20059;-71
2021/12/17 11:05:18;;;;;;;;;;;8.40;99.90;;;;;;4980532;28;20093;-72
2021/12/17 11:07:48;;;;;;;;;;;8.40;99.90;;;;;;4991961;28;20099;-72
2021/12/17 11:10:15;;;;;;;;;;;8.40;99.90;;;;;;4980346;28;20364;-71
2021/12/17 11:12:44;;;;;;;;;;;8.40;99.90;;;;;;4981335;28;20077;-72
2021/12/17 11:15:18;;;;;;;;;;;8.40;99.90;;;;;;4991617;28;20200;-71
2021/12/17 11:17:46;;;;;;;;;;;8.40;99.90;;;;;;4982108;28;20075;-71
2021/12/17 11:20:15;;;;;;;;;;;8.40;99.90;;;;;;4981127;28;20102;-71
2021/12/17 11:22:43;;;;;;;;;;;8.40;99.90;;;;;;4978907;28;20150;-72
2021/12/17 11:25:12;;;;;;;;;;;8.40;99.90;;;;;;4979070;28;20086;-72
2021/12/17 11:27:39;;;;;;;;;;;8.30;99.90;;;;;;4979234;28;20068;-72
2021/12/17 11:30:08;;;;;;;;;;;8.40;99.90;;;;;;4981119;28;20089;-71
2021/12/17 11:32:36;;;;;;;;;;;8.30;99.90;;;;;;4977209;28;20149;-71
2021/12/17 11:35:03;;;;;;;;;;;8.30;99.90;;;;;;4973530;28;20083;-74
2021/12/17 11:37:31;;;;;;;;;;;8.30;99.90;;;;;;4972857;28;20111;-72
2021/12/17 11:39:59;;;;;;;;;;;8.30;99.90;;;;;;4967118;28;20069;-72
2021/12/17 11:42:36;;;;;;;;;;;8.30;99.90;;;;;;4984334;28;20348;-70
2021/12/17 11:47:49;;;;;;;;;;;8.30;99.90;;;;;;4980190;28;20056;-72
2021/12/17 11:50:17;;;;;;;;;;;8.40;99.90;;;;;;4978830;28;21125;-72
2021/12/17 11:52:45;;;;;;;;;;;8.40;99.90;;;;;;4984190;28;20301;-72
2021/12/17 11:55:33;;;;;;;;;;;8.40;99.90;;;;;;4992774;28;20075;-71
2021/12/17 11:58:04;;;;;;;;;;;8.40;99.90;;;;;;4992556;28;20060;-72
2021/12/17 12:00:33;;;;;;;;;;;8.30;99.90;;;;;;4992017;28;21120;-71
2021/12/17 12:03:13;;;;;;;;;;;8.30;99.90;;;;;;4993035;28;20103;-72
2021/12/17 12:05:41;;;;;;;;;;;8.30;99.90;;;;;;4992189;28;20085;-72
2021/12/17 12:08:31;;;;;;;;;;;8.30;99.90;;;;;;4991766;28;21003;-72
2021/12/17 12:11:09;;;;;;;;;;;8.30;99.90;;;;;;4980688;28;20060;-71
2021/12/17 12:13:39;;;;;;;;;;;8.40;99.90;;;;;;4973168;28;20141;-72
2021/12/17 12:16:07;;;;;;;;;;;8.40;99.90;;;;;;4972458;28;21027;-72
2021/12/17 12:18:43;;;;;;;;;;;8.30;99.90;;;;;;4968958;28;20278;-71
2021/12/17 12:21:11;;;;;;;;;;;8.30;99.90;;;;;;4969656;28;20162;-72
2021/12/17 12:23:40;;;;;;;;;;;8.30;99.90;;;;;;4969972;28;20058;-70
2021/12/17 12:26:12;;;;;;;;;;;8.30;99.90;;;;;;4973054;28;20075;-71
2021/12/17 12:28:48;;;;;;;;;;;8.30;99.90;;;;;;4974161;28;20076;-72
2021/12/17 12:31:16;;;;;;;;;;;8.30;99.90;;;;;;4970163;28;20060;-71
2021/12/17 12:33:57;;;;;;;;;;;8.30;99.90;;;;;;4967265;28;20095;-72
2021/12/17 12:36:39;;;;;;;;;;;8.30;99.90;;;;;;4963685;28;20119;-72
2021/12/17 12:39:14;;;;;;;;;;;8.30;99.90;;;;;;4969628;28;21143;-71
2021/12/17 12:41:48;;;;;;;;;;;8.40;99.90;;;;;;4969095;28;20069;-71
2021/12/17 12:44:17;;;;;;;;;;;8.40;99.90;;;;;;4975053;28;20149;-72
2021/12/17 12:46:51;;;;;;;;;;;8.40;99.90;;;;;;4979511;28;21232;-72
2021/12/17 12:49:33;;;;;;;;;;;8.40;99.90;;;;;;4988181;28;20059;-71
2021/12/17 12:52:15;;;;;;;;;;;8.40;99.90;;;;;;4978403;28;20058;-73
2021/12/17 12:54:42;;;;;;;;;;;8.40;99.90;;;;;;4977199;28;20095;-71
2021/12/17 12:57:09;;;;;;;;;;;8.40;99.90;;;;;;4969196;28;20163;-71
2021/12/17 12:59:39;;;;;;;;;;;8.30;99.90;;;;;;4968907;28;20091;-72
2021/12/17 13:02:06;;;;;;;;;;;8.30;99.90;;;;;;4969370;28;21116;-72
2021/12/17 13:04:34;;;;;;;;;;;8.30;99.90;;;;;;4968537;28;20081;-72
2021/12/17 13:07:01;;;;;;;;;;;8.30;99.90;;;;;;4969399;28;20101;-71
2021/12/17 13:09:29;;;;;;;;;;;8.30;99.90;;;;;;4960495;28;20080;-72
2021/12/17 13:11:57;;;;;;;;;;;8.30;99.90;;;;;;4965535;28;20068;-71
2021/12/17 13:14:26;;;;;;;;;;;8.20;99.90;;;;;;4971692;28;20075;-72
2021/12/17 13:17:17;;;;;;;;;;;8.30;99.90;;;;;;4970626;28;20287;-71
2021/12/17 13:22:54;;;;;;;;;;;8.30;99.90;;;;;;4987013;28;20161;-71
2021/12/17 13:25:25;;;;;;;;;;;8.30;99.90;;;;;;4980741;28;20270;-71
2021/12/17 13:27:53;;;;;;;;;;;8.30;99.90;;;;;;4966565;28;20173;-71
2021/12/17 13:30:24;;;;;;;;;;;8.30;99.90;;;;;;4968598;28;20080;-72
2021/12/17 13:32:54;;;;;;;;;;;8.30;99.90;;;;;;4967642;28;21206;-72
2021/12/17 13:35:21;;;;;;;;;;;8.30;99.90;;;;;;4968215;28;20072;-71
2021/12/17 13:37:52;;;;;;;;;;;8.30;99.90;;;;;;4967426;28;20052;-71
2021/12/17 13:40:23;;;;;;;;;;;8.30;99.90;;;;;;4968103;28;20091;-72
2021/12/17 13:42:50;;;;;;;;;;;8.30;99.90;;;;;;4967978;28;20178;-71
2021/12/17 13:45:20;;;;;;;;;;;8.30;99.90;;;;;;4967434;28;20057;-71
2021/12/17 13:47:47;;;;;;;;;;;8.30;99.90;;;;;;4966341;28;20200;-72
2021/12/17 13:50:21;;;;;;;;;;;8.30;99.90;;;;;;4969070;28;20229;-72
2021/12/17 13:52:49;;;;;;;;;;;8.30;99.90;;;;;;4966919;28;20259;-71
2021/12/17 13:55:17;;;;;;;;;;;8.30;99.90;;;;;;4967434;28;20088;-72
2021/12/17 13:57:44;;;;;;;;;;;8.30;99.90;;;;;;4967388;28;20146;-71
2021/12/17 14:00:13;;;;;;;;;;;8.30;99.90;;;;;;4967552;28;21025;-71
2021/12/17 14:02:42;;;;;;;;;;;8.30;99.90;;;;;;4966727;28;20248;-71
2021/12/17 14:05:11;;;;;;;;;;;8.30;99.90;;;;;;4967147;28;20069;-72
2021/12/17 14:07:40;;;;;;;;;;;8.30;99.90;;;;;;4965716;28;20076;-72
2021/12/17 14:10:09;;;;;;;;;;;8.30;99.90;;;;;;4967398;28;20066;-71
2021/12/17 14:12:39;;;;;;;;;;;8.30;99.90;;;;;;4946974;28;20052;-71
2021/12/17 14:15:08;;;;;;;;;;;8.30;99.90;;;;;;4947527;28;20061;-71
2021/12/17 14:17:39;;;;;;;;;;;8.30;99.90;;;;;;4946413;28;20066;-72
2021/12/17 14:20:12;;;;;;;;;;;8.30;99.90;;;;;;4947076;28;20061;-71
2021/12/17 14:22:41;;;;;;;;;;;8.30;99.90;;;;;;4947186;28;20136;-72
2021/12/17 14:25:42;;;;;;;;;;;8.30;99.90;;;;;;4947077;28;21061;-72
2021/12/17 14:28:12;;;;;;;;;;;8.30;99.90;;;;;;4886270;29;20225;-71
2021/12/17 14:30:40;;;;;;;;;;;8.30;99.90;;;;;;4885857;29;21201;-71
2021/12/17 14:33:08;;;;;;;;;;;8.30;99.90;;;;;;4913432;28;20061;-71
2021/12/17 14:35:49;;;;;;;;;;;8.30;99.90;;;;;;4946339;28;21201;-71
2021/12/17 14:38:20;;;;;;;;;;;8.30;99.90;;;;;;4946714;28;20059;-71
2021/12/17 14:40:54;;;;;;;;;;;8.30;99.90;;;;;;4945175;28;20067;-71
2021/12/17 14:43:32;;;;;;;;;;;8.40;99.90;;;;;;4946812;28;20076;-71
2021/12/17 14:46:09;;;;;;;;;;;8.30;99.90;;;;;;4946720;28;21103;-70
2021/12/17 14:48:49;;;;;;;;;;;8.30;99.90;;;;;;4946947;28;20059;-72
2021/12/17 15:02:46;;;;;;;;;;;8.30;99.90;;;;;;4973153;28;21080;-71
2021/12/17 15:05:14;;;;;;;;;;;8.30;99.90;;;;;;4988242;28;20060;-71
2021/12/17 15:07:41;;;;;;;;;;;8.30;99.90;;;;;;4972722;28;21166;-71
2021/12/17 15:10:11;;;;;;;;;;;8.30;99.90;;;;;;4965399;28;20052;-72
2021/12/17 15:12:41;;;;;;;;;;;8.30;99.90;;;;;;4970571;28;20305;-71
2021/12/17 15:15:13;;;;;;;;;;;8.30;99.90;;;;;;4973912;28;20138;-72
2021/12/17 15:17:41;;;;;;;;;;;8.30;99.90;;;;;;4977430;28;20060;-72
2021/12/17 15:20:09;;;;;;;;;;;8.30;99.90;;;;;;4976608;28;20083;-72
2021/12/17 15:22:36;;;;;;;;;;;8.20;99.90;;;;;;4974241;28;21235;-71
2021/12/17 15:25:03;;;;;;;;;;;8.20;99.90;;;;;;4974638;28;20330;-71
2021/12/17 15:27:33;;;;;;;;;;;8.20;99.90;;;;;;4974502;28;20082;-72
2021/12/17 15:30:01;;;;;;;;;;;8.20;99.90;;;;;;4975490;28;21234;-70
2021/12/17 15:32:28;;;;;;;;;;;8.20;99.90;;;;;;4975010;28;20095;-70
2021/12/17 15:34:56;;;;;;;;;;;8.20;99.90;;;;;;4975952;28;20084;-72
2021/12/17 15:37:23;;;;;;;;;;;8.10;99.90;;;;;;4971020;28;20099;-71
2021/12/17 15:39:50;;;;;;;;;;;8.10;99.90;;;;;;4978446;28;20077;-71
2021/12/17 15:42:18;;;;;;;;;;;8.10;99.90;;;;;;4979347;28;20075;-71
2021/12/17 15:44:46;;;;;;;;;;;8.10;99.90;;;;;;4978332;28;20158;-71
2021/12/17 15:47:13;;;;;;;;;;;8.10;99.90;;;;;;4977357;28;20092;-72
2021/12/17 15:49:41;;;;;;;;;;;8.10;99.90;;;;;;4971719;28;20085;-75
2021/12/17 15:52:08;;;;;;;;;;;8.20;99.90;;;;;;4974839;28;20142;-78
2021/12/17 15:54:35;;;;;;;;;;;8.10;99.90;;;;;;4981329;28;20355;-73
2021/12/17 15:57:03;;;;;;;;;;;8.10;99.90;;;;;;4980892;28;20137;-73
2021/12/17 15:59:30;;;;;;;;;;;8.10;99.90;;;;;;4974415;28;20076;-72
2021/12/17 16:01:59;;;;;;;;;;;8.10;99.90;;;;;;4981363;28;20083;-73
2021/12/17 16:04:30;;;;;;;;;;;8.10;99.90;;;;;;4973739;28;20069;-73
2021/12/17 16:06:58;;;;;;;;;;;8.10;99.90;;;;;;4977819;28;20060;-73
2021/12/17 16:10:05;;;;;;;;;;;8.00;99.90;;;;;;4976129;28;20255;-73
2021/12/17 16:21:05;;;;;;;;;;;8.00;99.90;;;;;;4985113;28;20248;-73
2021/12/17 16:23:33;;;;;;;;;;;8.00;99.90;;;;;;4975213;28;20060;-73
2021/12/17 16:26:01;;;;;;;;;;;8.00;99.90;;;;;;4976398;28;20118;-73
2021/12/17 16:28:29;;;;;;;;;;;8.00;99.90;;;;;;4979209;28;20084;-73
2021/12/17 16:31:03;;;;;;;;;;;8.00;99.90;;;;;;4972931;28;21057;-73
2021/12/17 16:33:32;;;;;;;;;;;8.00;99.90;;;;;;4979041;28;20090;-72
2021/12/17 16:36:01;;;;;;;;;;;8.00;99.90;;;;;;4979401;28;20085;-72
2021/12/17 16:38:29;;;;;;;;;;;8.00;99.90;;;;;;4978700;28;20076;-71
2021/12/17 16:40:56;;;;;;;;;;;8.00;99.90;;;;;;4977409;28;20076;-71
2021/12/17 16:43:24;;;;;;;;;;;7.90;99.90;;;;;;4982117;28;21185;-71
2021/12/17 16:46:11;;;;;;;;;;;7.90;99.90;;;;;;4972347;28;20170;-72
2021/12/17 16:48:40;;;;;;;;;;;8.00;99.90;;;;;;4981876;28;21068;-72
2021/12/17 16:51:07;;;;;;;;;;;7.90;99.90;;;;;;4977334;28;20077;-71
2021/12/17 16:53:35;;;;;;;;;;;7.90;99.90;;;;;;4974896;28;20068;-71
2021/12/17 16:56:02;;;;;;;;;;;7.90;99.90;;;;;;4975134;28;20303;-72
2021/12/17 16:58:30;;;;;;;;;;;7.90;99.90;;;;;;4982242;28;20092;-72
2021/12/17 17:00:57;;;;;;;;;;;7.90;99.90;;;;;;4976982;28;20069;-72
2021/12/17 17:03:25;;;;;;;;;;;7.80;99.90;;;;;;4976519;28;20095;-72
2021/12/17 17:05:53;;;;;;;;;;;7.80;99.90;;;;;;4979601;28;20069;-71
2021/12/17 17:08:20;;;;;;;;;;;7.80;99.90;;;;;;4975873;28;20060;-72
2021/12/17 17:10:52;;;;;;;;;;;7.80;99.90;;;;;;4979737;28;20052;-72
2021/12/17 17:13:20;;;;;;;;;;;7.80;99.90;;;;;;4968524;28;20290;-72
2021/12/17 17:15:48;;;;;;;;;;;7.70;99.90;;;;;;4979995;28;20140;-72
2021/12/17 17:18:15;;;;;;;;;;;7.70;99.90;;;;;;4975009;28;20192;-72
2021/12/17 17:20:43;;;;;;;;;;;7.70;99.90;;;;;;4979620;28;20068;-72
2021/12/17 17:23:11;;;;;;;;;;;7.70;99.90;;;;;;4974161;28;20158;-72
2021/12/17 17:25:38;;;;;;;;;;;7.70;99.90;;;;;;4977466;28;20076;-72
2021/12/17 17:28:06;;;;;;;;;;;7.60;99.90;;;;;;4974915;28;20060;-72
2021/12/17 17:30:34;;;;;;;;;;;7.60;99.90;;;;;;4979029;28;20067;-72